sensor_id;sensor_type;location;lat;lon;timestamp;P1;durP1;ratioP1;P2;durP2;ratioP2
3819;SDS011;1925;51.356;9.530;2023-05-10T00:02:13;6.43;;;5.80;;
3819;SDS011;1925;51.356;9.530;2023-05-10T00:04:39;6.90;;;6.40;;
3819;SDS011;1925;51.356;9.530;2023-05-10T00:07:05;6.90;;;6.30;;
3819;SDS011;1925;51.356;9.530;2023-05-10T00:09:31;6.20;;;5.70;;
3819;SDS011;1925;51.356;9.530;2023-05-10T00:11:57;6.43;;;5.87;;
3819;SDS011;1925;51.356;9.530;2023-05-10T00:14:23;7.23;;;6.60;;
3819;SDS011;1925;51.356;9.530;2023-05-10T00:16:49;7.17;;;6.47;;
3819;SDS011;1925;51.356;9.530;2023-05-10T00:19:15;6.63;;;6.03;;
3819;SDS011;1925;51.356;9.530;2023-05-10T00:21:41;7.10;;;6.50;;
3819;SDS011;1925;51.356;9.530;2023-05-10T00:24:07;7.23;;;6.53;;
3819;SDS011;1925;51.356;9.530;2023-05-10T00:26:33;6.40;;;5.80;;
3819;SDS011;1925;51.356;9.530;2023-05-10T00:28:59;7.30;;;6.60;;
3819;SDS011;1925;51.356;9.530;2023-05-10T00:31:25;6.80;;;6.17;;
3819;SDS011;1925;51.356;9.530;2023-05-10T00:33:51;9.17;;;7.30;;
3819;SDS011;1925;51.356;9.530;2023-05-10T00:36:17;6.67;;;5.90;;
3819;SDS011;1925;51.356;9.530;2023-05-10T00:38:43;7.03;;;6.43;;
3819;SDS011;1925;51.356;9.530;2023-05-10T00:41:09;10.13;;;6.67;;
3819;SDS011;1925;51.356;9.530;2023-05-10T00:43:35;7.40;;;6.80;;
3819;SDS011;1925;51.356;9.530;2023-05-10T00:46:01;7.40;;;6.80;;
3819;SDS011;1925;51.356;9.530;2023-05-10T00:48:28;7.37;;;6.77;;
3819;SDS011;1925;51.356;9.530;2023-05-10T00:50:54;7.50;;;6.70;;
3819;SDS011;1925;51.356;9.530;2023-05-10T00:53:20;8.27;;;7.57;;
3819;SDS011;1925;51.356;9.530;2023-05-10T00:55:47;8.90;;;7.13;;
3819;SDS011;1925;51.356;9.530;2023-05-10T00:58:13;8.03;;;7.23;;
3819;SDS011;1925;51.356;9.530;2023-05-10T01:00:38;8.13;;;7.43;;
3819;SDS011;1925;51.356;9.530;2023-05-10T01:03:07;8.00;;;7.20;;
3819;SDS011;1925;51.356;9.530;2023-05-10T01:05:33;10.03;;;7.20;;
3819;SDS011;1925;51.356;9.530;2023-05-10T01:07:59;8.40;;;7.70;;
3819;SDS011;1925;51.356;9.530;2023-05-10T01:10:25;7.87;;;7.17;;
3819;SDS011;1925;51.356;9.530;2023-05-10T01:12:51;14.13;;;8.10;;
3819;SDS011;1925;51.356;9.530;2023-05-10T01:15:17;9.03;;;7.13;;
3819;SDS011;1925;51.356;9.530;2023-05-10T01:17:44;7.00;;;6.40;;
3819;SDS011;1925;51.356;9.530;2023-05-10T01:20:10;4.67;;;4.27;;
3819;SDS011;1925;51.356;9.530;2023-05-10T01:27:37;3.70;;;3.40;;
3819;SDS011;1925;51.356;9.530;2023-05-10T01:33:00;3.20;;;3.00;;
3819;SDS011;1925;51.356;9.530;2023-05-10T01:35:37;3.17;;;2.87;;
3819;SDS011;1925;51.356;9.530;2023-05-10T01:38:15;3.13;;;2.80;;
3819;SDS011;1925;51.356;9.530;2023-05-10T01:40:46;3.00;;;2.30;;
3819;SDS011;1925;51.356;9.530;2023-05-10T01:43:19;3.50;;;3.20;;
3819;SDS011;1925;51.356;9.530;2023-05-10T01:48:11;2.00;;;1.80;;
3819;SDS011;1925;51.356;9.530;2023-05-10T01:50:40;2.10;;;2.00;;
3819;SDS011;1925;51.356;9.530;2023-05-10T01:53:07;2.60;;;2.40;;
3819;SDS011;1925;51.356;9.530;2023-05-10T01:55:35;3.47;;;2.50;;
3819;SDS011;1925;51.356;9.530;2023-05-10T01:58:06;2.40;;;2.10;;
3819;SDS011;1925;51.356;9.530;2023-05-10T02:00:33;2.73;;;2.27;;
3819;SDS011;1925;51.356;9.530;2023-05-10T02:03:00;2.23;;;1.97;;
3819;SDS011;1925;51.356;9.530;2023-05-10T02:05:29;3.20;;;1.57;;
3819;SDS011;1925;51.356;9.530;2023-05-10T02:07:57;1.90;;;1.70;;
3819;SDS011;1925;51.356;9.530;2023-05-10T02:10:24;2.70;;;2.50;;
3819;SDS011;1925;51.356;9.530;2023-05-10T02:12:50;2.93;;;2.20;;
3819;SDS011;1925;51.356;9.530;2023-05-10T02:15:18;2.50;;;2.30;;
3819;SDS011;1925;51.356;9.530;2023-05-10T02:17:46;2.67;;;2.43;;
3819;SDS011;1925;51.356;9.530;2023-05-10T02:20:12;3.13;;;2.20;;
3819;SDS011;1925;51.356;9.530;2023-05-10T02:22:39;1.90;;;1.80;;
3819;SDS011;1925;51.356;9.530;2023-05-10T02:25:05;2.90;;;2.27;;
3819;SDS011;1925;51.356;9.530;2023-05-10T02:27:32;2.50;;;2.30;;
3819;SDS011;1925;51.356;9.530;2023-05-10T02:29:59;1.93;;;1.80;;
3819;SDS011;1925;51.356;9.530;2023-05-10T02:32:26;3.77;;;2.30;;
3819;SDS011;1925;51.356;9.530;2023-05-10T02:34:52;2.93;;;2.10;;
3819;SDS011;1925;51.356;9.530;2023-05-10T02:37:19;2.10;;;1.90;;
3819;SDS011;1925;51.356;9.530;2023-05-10T02:39:49;2.30;;;2.20;;
3819;SDS011;1925;51.356;9.530;2023-05-10T02:42:19;1.97;;;1.70;;
3819;SDS011;1925;51.356;9.530;2023-05-10T02:44:49;2.20;;;2.00;;
3819;SDS011;1925;51.356;9.530;2023-05-10T02:47:16;2.50;;;2.30;;
3819;SDS011;1925;51.356;9.530;2023-05-10T02:49:42;2.87;;;2.30;;
3819;SDS011;1925;51.356;9.530;2023-05-10T02:52:08;2.10;;;1.90;;
3819;SDS011;1925;51.356;9.530;2023-05-10T02:54:38;2.30;;;2.20;;
3819;SDS011;1925;51.356;9.530;2023-05-10T02:57:05;2.13;;;2.03;;
3819;SDS011;1925;51.356;9.530;2023-05-10T02:59:32;4.00;;;2.37;;
3819;SDS011;1925;51.356;9.530;2023-05-10T03:01:58;2.07;;;1.97;;
3819;SDS011;1925;51.356;9.530;2023-05-10T03:04:25;2.40;;;2.20;;
3819;SDS011;1925;51.356;9.530;2023-05-10T03:06:51;2.97;;;2.00;;
3819;SDS011;1925;51.356;9.530;2023-05-10T03:09:17;2.77;;;2.37;;
3819;SDS011;1925;51.356;9.530;2023-05-10T03:16:56;2.43;;;2.10;;
3819;SDS011;1925;51.356;9.530;2023-05-10T03:19:30;2.70;;;2.13;;
3819;SDS011;1925;51.356;9.530;2023-05-10T03:21:59;2.40;;;1.87;;
3819;SDS011;1925;51.356;9.530;2023-05-10T03:24:25;2.80;;;1.53;;
3819;SDS011;1925;51.356;9.530;2023-05-10T03:26:53;2.00;;;1.80;;
3819;SDS011;1925;51.356;9.530;2023-05-10T03:29:21;2.70;;;2.27;;
3819;SDS011;1925;51.356;9.530;2023-05-10T03:31:48;1.97;;;1.60;;
3819;SDS011;1925;51.356;9.530;2023-05-10T03:34:14;3.23;;;1.83;;
3819;SDS011;1925;51.356;9.530;2023-05-10T03:36:40;2.17;;;1.97;;
3819;SDS011;1925;51.356;9.530;2023-05-10T03:39:06;1.70;;;1.60;;
3819;SDS011;1925;51.356;9.530;2023-05-10T03:41:32;1.77;;;1.53;;
3819;SDS011;1925;51.356;9.530;2023-05-10T03:43:58;1.63;;;1.53;;
3819;SDS011;1925;51.356;9.530;2023-05-10T03:46:24;2.60;;;1.70;;
3819;SDS011;1925;51.356;9.530;2023-05-10T03:48:49;2.70;;;1.53;;
3819;SDS011;1925;51.356;9.530;2023-05-10T03:51:15;4.33;;;1.70;;
3819;SDS011;1925;51.356;9.530;2023-05-10T03:53:41;2.77;;;1.50;;
3819;SDS011;1925;51.356;9.530;2023-05-10T03:56:07;3.43;;;1.97;;
3819;SDS011;1925;51.356;9.530;2023-05-10T03:58:33;2.30;;;1.70;;
3819;SDS011;1925;51.356;9.530;2023-05-10T04:00:59;2.90;;;2.47;;
3819;SDS011;1925;51.356;9.530;2023-05-10T04:03:25;1.40;;;1.30;;
3819;SDS011;1925;51.356;9.530;2023-05-10T04:06:00;1.93;;;1.63;;
3819;SDS011;1925;51.356;9.530;2023-05-10T04:08:27;1.10;;;1.00;;
3819;SDS011;1925;51.356;9.530;2023-05-10T04:10:53;1.40;;;1.30;;
3819;SDS011;1925;51.356;9.530;2023-05-10T04:13:19;2.17;;;1.00;;
3819;SDS011;1925;51.356;9.530;2023-05-10T04:15:46;1.70;;;1.60;;
3819;SDS011;1925;51.356;9.530;2023-05-10T04:18:11;1.00;;;0.90;;
3819;SDS011;1925;51.356;9.530;2023-05-10T04:20:37;1.20;;;0.90;;
3819;SDS011;1925;51.356;9.530;2023-05-10T04:23:03;1.03;;;0.93;;
3819;SDS011;1925;51.356;9.530;2023-05-10T04:25:29;5.00;;;1.30;;
3819;SDS011;1925;51.356;9.530;2023-05-10T04:27:55;1.40;;;0.90;;
3819;SDS011;1925;51.356;9.530;2023-05-10T04:30:21;1.13;;;1.03;;
3819;SDS011;1925;51.356;9.530;2023-05-10T04:32:47;2.17;;;1.00;;
3819;SDS011;1925;51.356;9.530;2023-05-10T04:35:13;1.30;;;1.00;;
3819;SDS011;1925;51.356;9.530;2023-05-10T04:37:39;2.00;;;0.87;;
3819;SDS011;1925;51.356;9.530;2023-05-10T04:40:05;1.20;;;1.07;;
3819;SDS011;1925;51.356;9.530;2023-05-10T04:42:31;3.27;;;1.03;;
3819;SDS011;1925;51.356;9.530;2023-05-10T04:44:58;1.57;;;1.40;;
3819;SDS011;1925;51.356;9.530;2023-05-10T04:47:23;1.47;;;1.20;;
3819;SDS011;1925;51.356;9.530;2023-05-10T04:49:49;2.37;;;1.30;;
3819;SDS011;1925;51.356;9.530;2023-05-10T04:52:15;1.53;;;1.10;;
3819;SDS011;1925;51.356;9.530;2023-05-10T04:54:42;2.40;;;1.10;;
3819;SDS011;1925;51.356;9.530;2023-05-10T04:57:08;1.50;;;1.17;;
3819;SDS011;1925;51.356;9.530;2023-05-10T04:59:35;1.60;;;1.37;;
3819;SDS011;1925;51.356;9.530;2023-05-10T05:02:02;1.20;;;1.03;;
3819;SDS011;1925;51.356;9.530;2023-05-10T05:04:28;2.90;;;1.30;;
3819;SDS011;1925;51.356;9.530;2023-05-10T05:06:55;1.30;;;1.10;;
3819;SDS011;1925;51.356;9.530;2023-05-10T05:09:21;0.70;;;0.70;;
3819;SDS011;1925;51.356;9.530;2023-05-10T05:11:47;1.07;;;0.87;;
3819;SDS011;1925;51.356;9.530;2023-05-10T05:14:13;1.27;;;1.00;;
3819;SDS011;1925;51.356;9.530;2023-05-10T05:16:39;1.00;;;0.60;;
3819;SDS011;1925;51.356;9.530;2023-05-10T05:19:05;1.00;;;0.80;;
3819;SDS011;1925;51.356;9.530;2023-05-10T05:21:31;4.13;;;0.87;;
3819;SDS011;1925;51.356;9.530;2023-05-10T05:23:57;1.10;;;0.90;;
3819;SDS011;1925;51.356;9.530;2023-05-10T05:26:23;1.00;;;0.70;;
3819;SDS011;1925;51.356;9.530;2023-05-10T05:28:49;1.10;;;0.70;;
3819;SDS011;1925;51.356;9.530;2023-05-10T05:31:18;0.90;;;0.73;;
3819;SDS011;1925;51.356;9.530;2023-05-10T05:33:44;1.57;;;0.70;;
3819;SDS011;1925;51.356;9.530;2023-05-10T05:36:10;1.70;;;0.70;;
3819;SDS011;1925;51.356;9.530;2023-05-10T05:38:36;0.70;;;0.60;;
3819;SDS011;1925;51.356;9.530;2023-05-10T05:41:02;0.80;;;0.60;;
3819;SDS011;1925;51.356;9.530;2023-05-10T05:43:28;1.10;;;0.60;;
3819;SDS011;1925;51.356;9.530;2023-05-10T05:45:54;1.13;;;0.63;;
3819;SDS011;1925;51.356;9.530;2023-05-10T05:48:22;1.57;;;0.50;;
3819;SDS011;1925;51.356;9.530;2023-05-10T05:50:48;1.47;;;0.70;;
3819;SDS011;1925;51.356;9.530;2023-05-10T05:53:15;0.70;;;0.50;;
3819;SDS011;1925;51.356;9.530;2023-05-10T05:55:50;1.77;;;0.60;;
3819;SDS011;1925;51.356;9.530;2023-05-10T05:58:16;1.57;;;0.80;;
3819;SDS011;1925;51.356;9.530;2023-05-10T06:00:42;1.63;;;0.60;;
3819;SDS011;1925;51.356;9.530;2023-05-10T06:03:08;2.20;;;0.70;;
3819;SDS011;1925;51.356;9.530;2023-05-10T06:05:34;2.40;;;0.93;;
3819;SDS011;1925;51.356;9.530;2023-05-10T06:08:00;0.80;;;0.60;;
3819;SDS011;1925;51.356;9.530;2023-05-10T06:10:26;0.90;;;0.60;;
3819;SDS011;1925;51.356;9.530;2023-05-10T06:12:52;0.80;;;0.53;;
3819;SDS011;1925;51.356;9.530;2023-05-10T06:15:18;1.40;;;0.90;;
3819;SDS011;1925;51.356;9.530;2023-05-10T06:17:44;0.93;;;0.60;;
3819;SDS011;1925;51.356;9.530;2023-05-10T06:20:12;0.80;;;0.60;;
3819;SDS011;1925;51.356;9.530;2023-05-10T06:22:38;0.80;;;0.70;;
3819;SDS011;1925;51.356;9.530;2023-05-10T06:25:04;1.13;;;0.60;;
3819;SDS011;1925;51.356;9.530;2023-05-10T06:27:30;1.67;;;0.50;;
3819;SDS011;1925;51.356;9.530;2023-05-10T06:29:56;2.27;;;0.90;;
3819;SDS011;1925;51.356;9.530;2023-05-10T06:32:22;1.90;;;0.70;;
3819;SDS011;1925;51.356;9.530;2023-05-10T06:34:48;0.80;;;0.70;;
3819;SDS011;1925;51.356;9.530;2023-05-10T06:37:14;2.70;;;0.60;;
3819;SDS011;1925;51.356;9.530;2023-05-10T06:39:40;1.03;;;0.73;;
3819;SDS011;1925;51.356;9.530;2023-05-10T06:42:06;1.10;;;0.87;;
3819;SDS011;1925;51.356;9.530;2023-05-10T06:44:32;3.00;;;0.97;;
3819;SDS011;1925;51.356;9.530;2023-05-10T06:46:58;0.80;;;0.60;;
3819;SDS011;1925;51.356;9.530;2023-05-10T06:49:24;2.20;;;0.70;;
3819;SDS011;1925;51.356;9.530;2023-05-10T06:51:49;1.00;;;0.80;;
3819;SDS011;1925;51.356;9.530;2023-05-10T06:54:15;1.20;;;0.63;;
3819;SDS011;1925;51.356;9.530;2023-05-10T06:56:42;1.20;;;0.70;;
3819;SDS011;1925;51.356;9.530;2023-05-10T06:59:08;1.23;;;0.80;;
3819;SDS011;1925;51.356;9.530;2023-05-10T07:01:34;1.57;;;0.60;;
3819;SDS011;1925;51.356;9.530;2023-05-10T07:04:00;1.30;;;0.70;;
3819;SDS011;1925;51.356;9.530;2023-05-10T07:06:26;1.57;;;0.93;;
3819;SDS011;1925;51.356;9.530;2023-05-10T07:08:52;1.00;;;0.60;;
3819;SDS011;1925;51.356;9.530;2023-05-10T07:11:18;1.23;;;0.80;;
3819;SDS011;1925;51.356;9.530;2023-05-10T07:13:44;1.30;;;0.80;;
3819;SDS011;1925;51.356;9.530;2023-05-10T07:16:11;0.93;;;0.60;;
3819;SDS011;1925;51.356;9.530;2023-05-10T07:18:37;0.90;;;0.60;;
3819;SDS011;1925;51.356;9.530;2023-05-10T07:21:03;0.83;;;0.60;;
3819;SDS011;1925;51.356;9.530;2023-05-10T07:23:29;2.07;;;0.70;;
3819;SDS011;1925;51.356;9.530;2023-05-10T07:25:55;2.83;;;0.70;;
3819;SDS011;1925;51.356;9.530;2023-05-10T07:28:22;2.73;;;0.90;;
3819;SDS011;1925;51.356;9.530;2023-05-10T07:30:49;2.47;;;0.73;;
3819;SDS011;1925;51.356;9.530;2023-05-10T07:33:15;2.53;;;0.60;;
3819;SDS011;1925;51.356;9.530;2023-05-10T07:35:41;4.53;;;1.03;;
3819;SDS011;1925;51.356;9.530;2023-05-10T07:38:07;1.10;;;0.83;;
3819;SDS011;1925;51.356;9.530;2023-05-10T07:40:33;2.83;;;0.73;;
3819;SDS011;1925;51.356;9.530;2023-05-10T07:42:59;1.00;;;0.60;;
3819;SDS011;1925;51.356;9.530;2023-05-10T07:45:26;1.10;;;0.60;;
3819;SDS011;1925;51.356;9.530;2023-05-10T07:47:52;2.73;;;0.80;;
3819;SDS011;1925;51.356;9.530;2023-05-10T07:50:18;1.20;;;0.90;;
3819;SDS011;1925;51.356;9.530;2023-05-10T07:52:45;2.50;;;0.60;;
3819;SDS011;1925;51.356;9.530;2023-05-10T07:55:11;2.40;;;1.00;;
3819;SDS011;1925;51.356;9.530;2023-05-10T07:57:38;1.30;;;0.50;;
3819;SDS011;1925;51.356;9.530;2023-05-10T08:00:04;0.80;;;0.70;;
3819;SDS011;1925;51.356;9.530;2023-05-10T08:02:30;0.97;;;0.77;;
3819;SDS011;1925;51.356;9.530;2023-05-10T08:04:56;4.20;;;0.70;;
3819;SDS011;1925;51.356;9.530;2023-05-10T08:07:22;0.97;;;0.77;;
3819;SDS011;1925;51.356;9.530;2023-05-10T08:09:50;1.30;;;1.03;;
3819;SDS011;1925;51.356;9.530;2023-05-10T08:12:15;1.80;;;0.60;;
3819;SDS011;1925;51.356;9.530;2023-05-10T08:14:42;1.03;;;0.60;;
3819;SDS011;1925;51.356;9.530;2023-05-10T08:17:08;0.80;;;0.60;;
3819;SDS011;1925;51.356;9.530;2023-05-10T08:19:34;1.53;;;0.97;;
3819;SDS011;1925;51.356;9.530;2023-05-10T08:22:00;3.73;;;0.70;;
3819;SDS011;1925;51.356;9.530;2023-05-10T08:24:26;1.43;;;0.53;;
3819;SDS011;1925;51.356;9.530;2023-05-10T08:26:52;1.30;;;0.80;;
3819;SDS011;1925;51.356;9.530;2023-05-10T08:29:18;0.70;;;0.60;;
3819;SDS011;1925;51.356;9.530;2023-05-10T08:31:44;0.70;;;0.50;;
3819;SDS011;1925;51.356;9.530;2023-05-10T08:34:10;0.93;;;0.73;;
3819;SDS011;1925;51.356;9.530;2023-05-10T08:36:36;1.27;;;0.80;;
3819;SDS011;1925;51.356;9.530;2023-05-10T08:39:02;1.70;;;0.70;;
3819;SDS011;1925;51.356;9.530;2023-05-10T08:41:28;2.07;;;0.83;;
3819;SDS011;1925;51.356;9.530;2023-05-10T08:43:55;2.23;;;0.77;;
3819;SDS011;1925;51.356;9.530;2023-05-10T08:46:22;1.37;;;0.83;;
3819;SDS011;1925;51.356;9.530;2023-05-10T08:48:49;1.03;;;0.60;;
3819;SDS011;1925;51.356;9.530;2023-05-10T08:51:17;0.87;;;0.70;;
3819;SDS011;1925;51.356;9.530;2023-05-10T08:53:44;0.93;;;0.60;;
3819;SDS011;1925;51.356;9.530;2023-05-10T08:56:10;1.83;;;0.60;;
3819;SDS011;1925;51.356;9.530;2023-05-10T08:58:36;2.07;;;0.63;;
3819;SDS011;1925;51.356;9.530;2023-05-10T09:01:03;3.43;;;0.93;;
3819;SDS011;1925;51.356;9.530;2023-05-10T09:03:29;1.90;;;0.90;;
3819;SDS011;1925;51.356;9.530;2023-05-10T09:05:56;1.90;;;0.63;;
3819;SDS011;1925;51.356;9.530;2023-05-10T09:08:25;1.07;;;0.97;;
3819;SDS011;1925;51.356;9.530;2023-05-10T09:10:51;1.30;;;0.90;;
3819;SDS011;1925;51.356;9.530;2023-05-10T09:13:17;1.10;;;0.70;;
3819;SDS011;1925;51.356;9.530;2023-05-10T09:15:44;1.07;;;0.97;;
3819;SDS011;1925;51.356;9.530;2023-05-10T09:18:11;1.33;;;1.13;;
3819;SDS011;1925;51.356;9.530;2023-05-10T09:20:37;1.63;;;1.23;;
3819;SDS011;1925;51.356;9.530;2023-05-10T09:23:03;1.30;;;1.20;;
3819;SDS011;1925;51.356;9.530;2023-05-10T09:25:29;2.43;;;1.07;;
3819;SDS011;1925;51.356;9.530;2023-05-10T09:27:58;1.13;;;0.97;;
3819;SDS011;1925;51.356;9.530;2023-05-10T09:30:28;2.70;;;1.30;;
3819;SDS011;1925;51.356;9.530;2023-05-10T09:32:55;0.83;;;0.80;;
3819;SDS011;1925;51.356;9.530;2023-05-10T09:35:22;3.07;;;1.30;;
3819;SDS011;1925;51.356;9.530;2023-05-10T09:37:49;2.00;;;1.50;;
3819;SDS011;1925;51.356;9.530;2023-05-10T09:40:19;1.90;;;0.90;;
3819;SDS011;1925;51.356;9.530;2023-05-10T09:45:24;2.63;;;1.20;;
3819;SDS011;1925;51.356;9.530;2023-05-10T09:47:50;1.50;;;1.10;;
3819;SDS011;1925;51.356;9.530;2023-05-10T09:50:16;3.20;;;1.27;;
3819;SDS011;1925;51.356;9.530;2023-05-10T09:52:46;2.53;;;1.27;;
3819;SDS011;1925;51.356;9.530;2023-05-10T09:55:12;2.07;;;1.60;;
3819;SDS011;1925;51.356;9.530;2023-05-10T09:57:38;6.13;;;2.13;;
3819;SDS011;1925;51.356;9.530;2023-05-10T10:00:05;2.37;;;1.90;;
3819;SDS011;1925;51.356;9.530;2023-05-10T10:02:31;1.87;;;1.67;;
3819;SDS011;1925;51.356;9.530;2023-05-10T10:04:58;3.93;;;3.10;;
3819;SDS011;1925;51.356;9.530;2023-05-10T10:07:25;3.37;;;2.40;;
3819;SDS011;1925;51.356;9.530;2023-05-10T10:09:51;5.13;;;2.57;;
3819;SDS011;1925;51.356;9.530;2023-05-10T10:12:17;4.00;;;2.70;;
3819;SDS011;1925;51.356;9.530;2023-05-10T10:14:44;3.50;;;2.63;;
3819;SDS011;1925;51.356;9.530;2023-05-10T10:17:10;2.50;;;2.30;;
3819;SDS011;1925;51.356;9.530;2023-05-10T10:19:37;3.53;;;3.10;;
3819;SDS011;1925;51.356;9.530;2023-05-10T10:22:03;8.10;;;2.53;;
3819;SDS011;1925;51.356;9.530;2023-05-10T10:24:29;2.77;;;2.47;;
3819;SDS011;1925;51.356;9.530;2023-05-10T10:26:56;2.90;;;1.87;;
3819;SDS011;1925;51.356;9.530;2023-05-10T10:29:43;1.90;;;1.70;;
3819;SDS011;1925;51.356;9.530;2023-05-10T10:32:21;2.73;;;1.80;;
3819;SDS011;1925;51.356;9.530;2023-05-10T10:34:48;2.43;;;1.63;;
3819;SDS011;1925;51.356;9.530;2023-05-10T10:37:14;2.50;;;1.60;;
3819;SDS011;1925;51.356;9.530;2023-05-10T10:39:40;2.80;;;2.50;;
3819;SDS011;1925;51.356;9.530;2023-05-10T10:42:06;2.87;;;2.03;;
3819;SDS011;1925;51.356;9.530;2023-05-10T10:47:05;3.10;;;2.43;;
3819;SDS011;1925;51.356;9.530;2023-05-10T10:52:20;3.80;;;3.00;;
3819;SDS011;1925;51.356;9.530;2023-05-10T10:54:50;3.30;;;3.00;;
3819;SDS011;1925;51.356;9.530;2023-05-10T10:57:17;2.60;;;2.40;;
3819;SDS011;1925;51.356;9.530;2023-05-10T10:59:44;3.30;;;3.00;;
3819;SDS011;1925;51.356;9.530;2023-05-10T11:02:10;2.70;;;2.50;;
3819;SDS011;1925;51.356;9.530;2023-05-10T11:04:56;3.50;;;2.70;;
3819;SDS011;1925;51.356;9.530;2023-05-10T11:07:22;2.80;;;2.43;;
3819;SDS011;1925;51.356;9.530;2023-05-10T11:09:48;5.30;;;2.60;;
3819;SDS011;1925;51.356;9.530;2023-05-10T11:12:14;5.37;;;3.40;;
3819;SDS011;1925;51.356;9.530;2023-05-10T11:14:40;3.53;;;3.20;;
3819;SDS011;1925;51.356;9.530;2023-05-10T11:17:24;4.50;;;3.33;;
3819;SDS011;1925;51.356;9.530;2023-05-10T11:20:25;3.20;;;2.90;;
3819;SDS011;1925;51.356;9.530;2023-05-10T11:22:49;4.00;;;3.70;;
3819;SDS011;1925;51.356;9.530;2023-05-10T11:25:16;3.90;;;3.50;;
3819;SDS011;1925;51.356;9.530;2023-05-10T11:27:42;4.43;;;3.33;;
3819;SDS011;1925;51.356;9.530;2023-05-10T11:30:11;3.10;;;2.87;;
3819;SDS011;1925;51.356;9.530;2023-05-10T11:32:38;4.53;;;3.20;;
3819;SDS011;1925;51.356;9.530;2023-05-10T11:35:08;3.90;;;3.60;;
3819;SDS011;1925;51.356;9.530;2023-05-10T11:37:34;4.13;;;3.70;;
3819;SDS011;1925;51.356;9.530;2023-05-10T11:40:00;4.20;;;3.30;;
3819;SDS011;1925;51.356;9.530;2023-05-10T11:42:27;5.13;;;3.33;;
3819;SDS011;1925;51.356;9.530;2023-05-10T11:44:54;6.60;;;3.63;;
3819;SDS011;1925;51.356;9.530;2023-05-10T11:47:20;4.23;;;3.40;;
3819;SDS011;1925;51.356;9.530;2023-05-10T11:49:46;3.40;;;3.07;;
3819;SDS011;1925;51.356;9.530;2023-05-10T11:52:12;3.43;;;3.13;;
3819;SDS011;1925;51.356;9.530;2023-05-10T11:54:44;3.80;;;3.10;;
3819;SDS011;1925;51.356;9.530;2023-05-10T11:57:11;3.67;;;3.30;;
3819;SDS011;1925;51.356;9.530;2023-05-10T11:59:37;3.00;;;2.70;;
3819;SDS011;1925;51.356;9.530;2023-05-10T12:02:03;4.40;;;3.23;;
3819;SDS011;1925;51.356;9.530;2023-05-10T12:04:29;4.83;;;3.50;;
3819;SDS011;1925;51.356;9.530;2023-05-10T12:06:55;3.87;;;3.53;;
3819;SDS011;1925;51.356;9.530;2023-05-10T12:09:21;4.43;;;4.03;;
3819;SDS011;1925;51.356;9.530;2023-05-10T12:11:47;5.27;;;3.60;;
3819;SDS011;1925;51.356;9.530;2023-05-10T12:14:13;4.80;;;3.63;;
3819;SDS011;1925;51.356;9.530;2023-05-10T12:16:40;4.07;;;3.43;;
3819;SDS011;1925;51.356;9.530;2023-05-10T12:19:08;4.50;;;3.67;;
3819;SDS011;1925;51.356;9.530;2023-05-10T12:21:34;6.87;;;4.10;;
3819;SDS011;1925;51.356;9.530;2023-05-10T12:24:03;8.70;;;3.80;;
3819;SDS011;1925;51.356;9.530;2023-05-10T12:26:30;6.03;;;4.40;;
3819;SDS011;1925;51.356;9.530;2023-05-10T12:29:16;8.00;;;3.67;;
3819;SDS011;1925;51.356;9.530;2023-05-10T12:34:27;3.90;;;3.50;;
3819;SDS011;1925;51.356;9.530;2023-05-10T12:36:55;6.10;;;4.23;;
3819;SDS011;1925;51.356;9.530;2023-05-10T12:39:21;5.70;;;4.40;;
3819;SDS011;1925;51.356;9.530;2023-05-10T12:41:47;7.33;;;5.00;;
3819;SDS011;1925;51.356;9.530;2023-05-10T12:44:14;5.33;;;4.73;;
3819;SDS011;1925;51.356;9.530;2023-05-10T12:46:40;5.63;;;5.00;;
3819;SDS011;1925;51.356;9.530;2023-05-10T12:49:06;6.20;;;5.03;;
3819;SDS011;1925;51.356;9.530;2023-05-10T12:51:32;8.87;;;4.67;;
3819;SDS011;1925;51.356;9.530;2023-05-10T12:53:58;6.87;;;4.83;;
3819;SDS011;1925;51.356;9.530;2023-05-10T12:56:24;5.17;;;4.10;;
3819;SDS011;1925;51.356;9.530;2023-05-10T12:58:50;6.93;;;3.47;;
3819;SDS011;1925;51.356;9.530;2023-05-10T13:01:16;4.70;;;3.30;;
3819;SDS011;1925;51.356;9.530;2023-05-10T13:03:42;5.57;;;4.10;;
3819;SDS011;1925;51.356;9.530;2023-05-10T13:06:08;10.63;;;4.33;;
3819;SDS011;1925;51.356;9.530;2023-05-10T13:08:34;5.73;;;3.23;;
3819;SDS011;1925;51.356;9.530;2023-05-10T13:11:02;8.73;;;4.23;;
3819;SDS011;1925;51.356;9.530;2023-05-10T13:13:28;6.70;;;4.10;;
3819;SDS011;1925;51.356;9.530;2023-05-10T13:15:54;4.50;;;3.30;;
3819;SDS011;1925;51.356;9.530;2023-05-10T13:18:20;9.50;;;3.90;;
3819;SDS011;1925;51.356;9.530;2023-05-10T13:20:46;4.40;;;3.50;;
3819;SDS011;1925;51.356;9.530;2023-05-10T13:23:12;4.43;;;3.60;;
3819;SDS011;1925;51.356;9.530;2023-05-10T13:25:38;5.63;;;3.70;;
3819;SDS011;1925;51.356;9.530;2023-05-10T13:28:04;6.27;;;3.70;;
3819;SDS011;1925;51.356;9.530;2023-05-10T13:30:30;3.67;;;2.70;;
3819;SDS011;1925;51.356;9.530;2023-05-10T13:32:56;4.00;;;3.03;;
3819;SDS011;1925;51.356;9.530;2023-05-10T13:35:22;3.63;;;2.70;;
3819;SDS011;1925;51.356;9.530;2023-05-10T13:37:48;4.43;;;3.57;;
3819;SDS011;1925;51.356;9.530;2023-05-10T13:40:14;5.10;;;3.77;;
3819;SDS011;1925;51.356;9.530;2023-05-10T13:42:40;4.57;;;3.63;;
3819;SDS011;1925;51.356;9.530;2023-05-10T13:45:06;3.90;;;3.00;;
3819;SDS011;1925;51.356;9.530;2023-05-10T13:47:32;4.40;;;3.10;;
3819;SDS011;1925;51.356;9.530;2023-05-10T13:49:58;4.20;;;3.43;;
3819;SDS011;1925;51.356;9.530;2023-05-10T13:52:24;3.03;;;2.50;;
3819;SDS011;1925;51.356;9.530;2023-05-10T13:54:50;3.53;;;2.73;;
3819;SDS011;1925;51.356;9.530;2023-05-10T13:57:19;3.17;;;2.50;;
3819;SDS011;1925;51.356;9.530;2023-05-10T13:59:45;3.50;;;2.67;;
3819;SDS011;1925;51.356;9.530;2023-05-10T14:02:11;4.07;;;2.83;;
3819;SDS011;1925;51.356;9.530;2023-05-10T14:04:38;2.90;;;2.40;;
3819;SDS011;1925;51.356;9.530;2023-05-10T14:07:04;3.93;;;2.43;;
3819;SDS011;1925;51.356;9.530;2023-05-10T14:09:30;3.90;;;1.87;;
3819;SDS011;1925;51.356;9.530;2023-05-10T14:11:56;4.07;;;1.87;;
3819;SDS011;1925;51.356;9.530;2023-05-10T14:14:22;3.77;;;2.90;;
3819;SDS011;1925;51.356;9.530;2023-05-10T14:16:48;2.93;;;2.40;;
3819;SDS011;1925;51.356;9.530;2023-05-10T14:19:14;2.70;;;1.83;;
3819;SDS011;1925;51.356;9.530;2023-05-10T14:21:40;3.70;;;2.13;;
3819;SDS011;1925;51.356;9.530;2023-05-10T14:24:06;4.43;;;2.60;;
3819;SDS011;1925;51.356;9.530;2023-05-10T14:26:32;5.63;;;2.77;;
3819;SDS011;1925;51.356;9.530;2023-05-10T14:28:59;4.57;;;2.90;;
3819;SDS011;1925;51.356;9.530;2023-05-10T14:31:25;4.40;;;2.70;;
3819;SDS011;1925;51.356;9.530;2023-05-10T14:33:51;4.27;;;3.17;;
3819;SDS011;1925;51.356;9.530;2023-05-10T14:36:17;2.90;;;2.30;;
3819;SDS011;1925;51.356;9.530;2023-05-10T14:38:43;2.90;;;2.47;;
3819;SDS011;1925;51.356;9.530;2023-05-10T14:41:09;4.40;;;2.13;;
3819;SDS011;1925;51.356;9.530;2023-05-10T14:43:39;3.23;;;1.80;;
3819;SDS011;1925;51.356;9.530;2023-05-10T14:46:05;4.20;;;1.30;;
3819;SDS011;1925;51.356;9.530;2023-05-10T14:48:31;2.20;;;1.50;;
3819;SDS011;1925;51.356;9.530;2023-05-10T14:50:57;2.20;;;1.70;;
3819;SDS011;1925;51.356;9.530;2023-05-10T14:53:23;2.20;;;1.73;;
3819;SDS011;1925;51.356;9.530;2023-05-10T14:55:49;2.23;;;1.70;;
3819;SDS011;1925;51.356;9.530;2023-05-10T14:58:15;2.27;;;1.67;;
3819;SDS011;1925;51.356;9.530;2023-05-10T15:00:41;1.87;;;1.57;;
3819;SDS011;1925;51.356;9.530;2023-05-10T15:03:08;2.87;;;2.53;;
3819;SDS011;1925;51.356;9.530;2023-05-10T15:05:34;4.37;;;3.30;;
3819;SDS011;1925;51.356;9.530;2023-05-10T15:08:02;3.67;;;2.87;;
3819;SDS011;1925;51.356;9.530;2023-05-10T15:10:28;4.00;;;3.60;;
3819;SDS011;1925;51.356;9.530;2023-05-10T15:12:53;4.30;;;3.60;;
3819;SDS011;1925;51.356;9.530;2023-05-10T15:15:19;3.90;;;3.50;;
3819;SDS011;1925;51.356;9.530;2023-05-10T15:17:45;6.23;;;3.70;;
3819;SDS011;1925;51.356;9.530;2023-05-10T15:20:11;7.00;;;4.57;;
3819;SDS011;1925;51.356;9.530;2023-05-10T15:22:37;5.40;;;4.90;;
3819;SDS011;1925;51.356;9.530;2023-05-10T15:25:03;6.60;;;4.83;;
3819;SDS011;1925;51.356;9.530;2023-05-10T15:27:29;7.37;;;4.33;;
3819;SDS011;1925;51.356;9.530;2023-05-10T15:29:55;6.33;;;5.07;;
3819;SDS011;1925;51.356;9.530;2023-05-10T15:32:21;6.73;;;5.30;;
3819;SDS011;1925;51.356;9.530;2023-05-10T15:34:47;8.10;;;5.10;;
3819;SDS011;1925;51.356;9.530;2023-05-10T15:37:13;10.63;;;5.90;;
3819;SDS011;1925;51.356;9.530;2023-05-10T15:39:39;7.33;;;5.53;;